Crotona Park, New York
Current Conditions -  °F | °C
As of 4:51 AM on Tuesday 27 Jan 2015 (Local Time) from KLGA Reporting Station
Light Snow Light Snow  
Wind Chill:   Ceiling: 1700
Heat Index: 21°   Visibility: 1mi
Dew Point: 17°   Wind: 21mph
Humidity: 85%   Direction: 350°N
Pressure: 29.65"   Gusts: 29mph
Location:  40.8446°N, 73.88°W
Report Text: KLGA 270951Z 35018G25KT 1SM R04/P6000FT -SN BLSN VV017 M06/M08 A2965 RMK AO2 PK WND 36029/0914 SLP040 SNINCR 1/12 PRESENT WX DRSN P0002 T10611083 $
Loading
Personal Weather Stations






























Interactive Weather Map New forecast layout! Learn more

10-Day Weather Forecast

Advertisements
Track Severe Weather on mobile